Time;durP1;ratioP1;P1;durP2;ratioP2;P2;SDS_P1;SDS_P2;PMS_P1;PMS_P2;Temp;Humidity;BMP_temperature;BMP_pressure;BME280_temperature;BME280_humidity;BME280_pressure;Samples;Min_cycle;Max_cycle;Signal;HPM_P1;HPM_P2
2022/05/28 00:00:07;;;;;;;4.10;3.53;;;;;;;7.45;100.00;98430.31;2577566;28;20053;-80
2022/05/28 00:01:33;;;;;;;4.70;3.65;;;;;;;7.34;100.00;98438.28;2577326;28;20556;-79
2022/05/28 00:02:49;;;;;;;6.63;3.25;;;;;;;7.25;100.00;98441.88;2577566;28;20639;-79
2022/05/28 00:04:08;;;;;;;4.65;3.10;;;;;;;7.08;100.00;98439.53;2577509;28;20054;-79
2022/05/28 00:05:23;;;;;;;4.50;3.10;;;;;;;7.00;100.00;98431.81;2577333;28;20137;-78
2022/05/28 00:06:39;;;;;;;3.65;3.25;;;;;;;7.00;100.00;98441.38;2577533;28;20105;-79
2022/05/28 00:07:54;;;;;;;7.05;3.00;;;;;;;7.03;100.00;98439.56;2577404;28;20050;-83
2022/05/28 00:09:10;;;;;;;11.15;3.38;;;;;;;7.02;100.00;98439.63;2577525;28;20492;-79
2022/05/28 00:10:26;;;;;;;16.70;3.47;;;;;;;6.94;100.00;98442.31;2577112;28;20060;-79
2022/05/28 00:11:42;;;;;;;9.40;3.40;;;;;;;6.89;100.00;98444.97;2577662;28;20058;-79
2022/05/28 00:12:57;;;;;;;11.35;3.05;;;;;;;6.84;100.00;98438.97;2577408;28;20054;-79
2022/05/28 00:14:14;;;;;;;7.72;3.40;;;;;;;6.80;100.00;98437.28;2577483;28;20046;-78
2022/05/28 00:15:29;;;;;;;5.43;2.97;;;;;;;6.86;100.00;98442.44;2577612;28;20512;-78
2022/05/28 00:16:46;;;;;;;4.85;3.28;;;;;;;6.86;100.00;98438.94;2577086;28;20077;-81
2022/05/28 00:18:01;;;;;;;9.55;3.30;;;;;;;6.87;100.00;98443.28;2577646;28;20128;-79
2022/05/28 00:19:17;;;;;;;5.60;3.42;;;;;;;6.88;100.00;98442.38;2577459;28;20047;-80
2022/05/28 00:20:32;;;;;;;5.18;3.42;;;;;;;6.88;100.00;98443.25;2577521;28;20054;-79
2022/05/28 00:21:48;;;;;;;4.45;3.40;;;;;;;6.90;100.00;98440.63;2577683;28;20054;-79
2022/05/28 00:23:04;;;;;;;5.20;3.65;;;;;;;6.98;100.00;98445.72;2577191;28;20051;-79
2022/05/28 00:24:19;;;;;;;6.00;3.83;;;;;;;6.98;100.00;98438.78;2577556;28;20620;-79
2022/05/28 00:25:35;;;;;;;11.07;3.72;;;;;;;7.00;100.00;98439.63;2577555;28;20046;-82
2022/05/28 00:26:50;;;;;;;8.40;3.67;;;;;;;6.93;100.00;98438.00;2577348;28;20086;-79
2022/05/28 00:28:06;;;;;;;12.23;3.80;;;;;;;6.85;100.00;98438.09;2577555;28;20055;-79
2022/05/28 00:29:21;;;;;;;25.95;3.92;;;;;;;6.76;100.00;98440.81;2577090;28;20466;-79
2022/05/28 00:30:38;;;;;;;36.05;6.45;;;;;;;6.72;100.00;98444.34;2577014;28;20065;-81
2022/05/28 00:31:54;;;;;;;17.15;3.92;;;;;;;6.57;100.00;98446.25;2577391;28;20499;-78
2022/05/28 00:33:10;;;;;;;6.55;4.20;;;;;;;6.68;100.00;98440.91;2577300;28;20057;-80
2022/05/28 00:34:31;;;;;;;14.77;4.15;;;;;;;6.70;100.00;98440.88;2577008;28;20081;-79
2022/05/28 00:35:46;;;;;;;22.30;4.25;;;;;;;6.71;100.00;98437.41;2576719;28;20164;-79
2022/05/28 00:37:03;;;;;;;29.42;3.72;;;;;;;6.44;100.00;98439.47;2566201;28;20172;-81
2022/05/28 00:38:19;;;;;;;40.65;3.65;;;;;;;6.17;100.00;98444.94;2570778;28;20050;-81
2022/05/28 00:39:35;;;;;;;15.77;3.22;;;;;;;6.10;100.00;98450.19;2577219;28;20488;-79
2022/05/28 00:40:53;;;;;;;6.03;3.25;;;;;;;6.24;100.00;98437.94;2577236;28;20100;-79
2022/05/28 00:42:09;;;;;;;9.95;3.92;;;;;;;6.34;100.00;98438.69;2577200;28;20113;-79
2022/05/28 00:43:26;;;;;;;13.98;3.42;;;;;;;6.27;100.00;98447.44;2577241;28;20441;-80
2022/05/28 00:44:41;;;;;;;10.70;3.13;;;;;;;6.24;100.00;98439.69;2577260;28;20054;-84
2022/05/28 00:46:10;;;;;;;5.82;3.25;;;;;;;6.14;100.00;98446.69;2577091;28;20472;-79
2022/05/28 00:47:26;;;;;;;6.85;3.25;;;;;;;6.18;100.00;98446.66;2577030;28;20058;-79
2022/05/28 00:48:45;;;;;;;6.53;3.60;;;;;;;6.26;100.00;98443.13;2577151;28;20088;-79
2022/05/28 00:50:03;;;;;;;5.13;3.17;;;;;;;6.31;100.00;98439.59;2577043;28;20042;-79
2022/05/28 00:51:24;;;;;;;10.90;3.33;;;;;;;6.37;100.00;98441.28;2577135;28;20442;-80
2022/05/28 00:52:41;;;;;;;10.75;3.42;;;;;;;6.34;100.00;98438.69;2577332;28;20058;-79
2022/05/28 00:54:01;;;;;;;26.17;3.80;;;;;;;6.28;100.00;98438.75;2576952;28;20046;-79
2022/05/28 00:55:17;;;;;;;18.58;3.67;;;;;;;6.20;100.00;98436.25;2577114;28;20046;-80
2022/05/28 00:56:33;;;;;;;24.70;3.47;;;;;;;6.03;100.00;98445.09;2576817;28;20054;-79
2022/05/28 00:57:49;;;;;;;9.15;2.97;;;;;;;5.96;100.00;98440.75;2577026;28;20054;-79
2022/05/28 00:59:06;;;;;;;16.65;3.60;;;;;;;5.98;100.00;98440.75;2577080;28;20382;-79
2022/05/28 01:00:22;;;;;;;4.45;3.40;;;;;;;6.05;100.00;98429.44;2577300;28;20054;-79
2022/05/28 01:01:43;;;;;;;9.32;3.50;;;;;;;6.08;100.00;98427.69;2577038;28;20066;-79
2022/05/28 01:03:24;;;;;;;46.35;4.78;;;;;;;6.09;100.00;98428.56;2577002;28;20057;-79
2022/05/28 01:04:42;;;;;;;33.70;4.57;;;;;;;6.08;100.00;98432.88;2576829;28;20050;-80
2022/05/28 01:06:18;;;;;;;46.88;3.83;;;;;;;5.94;100.00;98440.81;2576857;28;20141;-83
2022/05/28 01:07:40;;;;;;;13.20;3.10;;;;;;;5.79;100.00;98435.72;2576737;28;20133;-79
2022/05/28 01:09:03;;;;;;;6.80;3.50;;;;;;;5.65;100.00;98431.50;2577196;28;20113;-79
2022/05/28 01:10:31;;;;;;;5.05;3.70;;;;;;;5.63;100.00;98435.00;2576914;28;20060;-79
2022/05/28 01:12:00;;;;;;;8.00;3.65;;;;;;;5.68;100.00;98435.81;2577050;28;20054;-80
2022/05/28 01:13:35;;;;;;;5.72;3.65;;;;;;;5.73;100.00;98434.06;2576908;28;20105;-80
2022/05/28 01:14:56;;;;;;;3.67;3.05;;;;;;;5.69;100.00;98428.91;2576782;28;20050;-81
2022/05/28 01:16:14;;;;;;;7.70;4.05;;;;;;;5.65;100.00;98438.44;2576514;28;20097;-79
2022/05/28 01:17:53;;;;;;;7.32;3.85;;;;;;;5.64;100.00;98436.72;2576741;28;20051;-79
2022/05/28 01:19:28;;;;;;;5.85;3.47;;;;;;;5.55;100.00;98437.66;2539594;28;20190;-79
2022/05/28 01:20:52;;;;;;;9.45;3.70;;;;;;;5.46;100.00;98438.59;2576638;28;20042;-84
2022/05/28 01:22:18;;;;;;;27.38;4.60;;;;;;;5.46;100.00;98441.19;2576689;28;20313;-80
2022/05/28 01:24:01;;;;;;;29.55;4.20;;;;;;;5.45;100.00;98438.59;2576806;28;20050;-80
2022/05/28 01:25:54;;;;;;;33.70;4.20;;;;;;;5.47;100.00;98437.72;2576863;28;20326;-81
2022/05/28 01:27:13;;;;;;;13.40;3.50;;;;;;;5.48;100.00;98434.25;2576910;28;20054;-79
2022/05/28 01:28:37;;;;;;;13.60;3.22;;;;;;;5.51;100.00;98442.00;2576753;28;20097;-79
2022/05/28 01:29:56;;;;;;;23.50;3.15;;;;;;;5.55;100.00;98437.66;2576738;28;20105;-79
2022/05/28 01:31:14;;;;;;;15.07;3.33;;;;;;;5.45;100.00;98436.88;2576554;28;20046;-79
2022/05/28 01:32:32;;;;;;;34.38;3.65;;;;;;;5.41;100.00;98435.16;2576652;28;20097;-80
2022/05/28 01:33:48;;;;;;;17.63;3.15;;;;;;;5.43;100.00;98428.22;2577063;28;20058;-79
2022/05/28 01:35:09;;;;;;;28.52;2.95;;;;;;;5.46;100.00;98423.00;2576813;28;20129;-79
2022/05/28 01:36:26;;;;;;;36.08;3.85;;;;;;;5.42;100.00;98429.09;2576300;28;20050;-79
2022/05/28 01:37:44;;;;;;;36.08;5.03;;;;;;;5.42;100.00;98429.09;2576320;28;20046;-79
2022/05/28 01:39:00;;;;;;;8.93;3.08;;;;;;;5.48;100.00;98425.59;2576682;28;20642;-80
2022/05/28 01:40:18;;;;;;;11.38;3.13;;;;;;;5.50;100.00;98421.22;2576850;28;20470;-79
2022/05/28 01:41:36;;;;;;;5.38;3.30;;;;;;;5.58;100.00;98421.16;2576705;28;20054;-80
2022/05/28 01:42:55;;;;;;;8.85;3.13;;;;;;;5.62;100.00;98423.75;2576891;28;20501;-79
2022/05/28 01:44:13;;;;;;;5.68;2.97;;;;;;;5.68;100.00;98421.97;2575919;28;20042;-79
2022/05/28 01:45:30;;;;;;;11.55;3.30;;;;;;;5.66;100.00;98421.97;2576284;28;20047;-80
2022/05/28 01:46:47;;;;;;;4.90;3.60;;;;;;;5.73;100.00;98412.41;2576663;28;20058;-80
2022/05/28 01:48:06;;;;;;;21.88;3.25;;;;;;;5.43;100.00;98412.63;2571671;28;20047;-80
2022/05/28 01:49:23;;;;;;;5.00;2.35;;;;;;;5.19;100.00;98414.56;2573615;28;20077;-79
2022/05/28 01:50:43;;;;;;;4.75;3.33;;;;;;;5.32;100.00;98417.91;2576634;28;20184;-81
2022/05/28 01:52:01;;;;;;;5.13;3.30;;;;;;;5.35;100.00;98419.63;2576629;28;20046;-80
2022/05/28 01:54:57;;;;;;;5.57;3.60;;;;;;;5.32;100.00;98417.91;2576596;28;20057;-80
2022/05/28 01:56:12;;;;;;;4.18;3.22;;;;;;;5.38;100.00;98422.19;2576289;28;20497;-80
2022/05/28 01:57:29;;;;;;;7.68;3.42;;;;;;;5.45;100.00;98421.28;2576530;28;20073;-80
2022/05/28 01:58:44;;;;;;;6.63;3.90;;;;;;;5.44;100.00;98418.69;2576403;28;20051;-79
2022/05/28 02:00:00;;;;;;;7.78;3.85;;;;;;;5.45;100.00;98421.28;2576750;28;20524;-79
2022/05/28 02:01:15;;;;;;;8.55;3.95;;;;;;;5.51;100.00;98417.75;2570833;28;20186;-79
2022/05/28 02:02:31;;;;;;;8.25;4.25;;;;;;;5.57;100.00;98419.44;2572286;28;20050;-79
2022/05/28 02:03:51;;;;;;;7.53;4.30;;;;;;;5.55;100.00;98414.28;2576211;28;20521;-79
2022/05/28 02:05:07;;;;;;;4.97;4.18;;;;;;;5.41;100.00;98418.72;2576047;28;20121;-79
2022/05/28 02:06:22;;;;;;;5.43;3.38;;;;;;;5.16;100.00;98414.53;2576183;28;20066;-79
2022/05/28 02:07:38;;;;;;;6.43;3.30;;;;;;;5.04;100.00;98419.84;2576409;28;20057;-79
2022/05/28 02:08:55;;;;;;;5.07;3.20;;;;;;;4.88;100.00;98419.91;2576535;28;20054;-79
2022/05/28 02:10:15;;;;;;;4.25;3.13;;;;;;;4.73;100.00;98418.25;2576253;28;20078;-79
2022/05/28 02:11:59;;;;;;;6.55;3.22;;;;;;;4.77;100.00;98407.00;2576337;28;20054;-80
2022/05/28 02:13:24;;;;;;;6.75;3.33;;;;;;;4.87;100.00;98407.81;2576090;28;20054;-79
2022/05/28 02:14:53;;;;;;;5.00;3.40;;;;;;;4.94;100.00;98409.50;2576594;28;20094;-79
2022/05/28 02:16:15;;;;;;;6.65;3.63;;;;;;;4.90;100.00;98412.13;2576490;28;20069;-79
2022/05/28 02:17:52;;;;;;;5.80;3.10;;;;;;;4.85;100.00;98412.13;2576374;28;20043;-81
2022/05/28 02:19:15;;;;;;;5.07;3.25;;;;;;;5.07;100.00;98412.88;2576082;28;20145;-78
2022/05/28 02:20:52;;;;;;;8.32;3.42;;;;;;;5.14;100.00;98405.91;2575958;28;20425;-79
2022/05/28 02:22:33;;;;;;;8.25;4.18;;;;;;;5.19;100.00;98411.97;2576424;28;20050;-79
2022/05/28 02:24:01;;;;;;;5.25;3.63;;;;;;;5.15;100.00;98411.97;2573213;28;20046;-79
2022/05/28 02:25:33;;;;;;;8.57;3.90;;;;;;;5.05;100.00;98406.84;2576212;28;20046;-84
2022/05/28 02:26:57;;;;;;;10.30;3.97;;;;;;;5.05;100.00;98416.38;2576274;28;20089;-81
2022/05/28 02:28:15;;;;;;;7.18;3.65;;;;;;;5.03;100.00;98415.50;2576263;28;20468;-83
2022/05/28 02:29:32;;;;;;;5.32;3.63;;;;;;;4.95;100.00;98411.22;2576032;28;20073;-79
2022/05/28 02:30:50;;;;;;;7.25;3.92;;;;;;;4.93;100.00;98412.97;2575832;28;20420;-79
2022/05/28 02:32:19;;;;;;;5.70;3.35;;;;;;;4.99;100.00;98406.00;2576099;28;20082;-79
2022/05/28 02:33:35;;;;;;;10.65;3.90;;;;;;;5.07;100.00;98407.69;2576403;28;20060;-81
2022/05/28 02:34:51;;;;;;;10.07;4.20;;;;;;;5.12;100.00;98406.81;2576202;28;20050;-79
2022/05/28 02:36:07;;;;;;;6.38;3.63;;;;;;;5.15;100.00;98412.81;2565392;28;20100;-79
2022/05/28 02:37:26;;;;;;;11.13;4.40;;;;;;;5.27;100.00;98406.72;2569323;28;20054;-80
2022/05/28 02:38:41;;;;;;;7.82;3.97;;;;;;;5.25;100.00;98403.28;2576217;28;20058;-79
2022/05/28 02:39:57;;;;;;;12.15;4.00;;;;;;;5.21;100.00;98398.94;2576181;28;20062;-79
2022/05/28 02:41:13;;;;;;;6.97;3.88;;;;;;;5.23;100.00;98408.47;2575924;28;20065;-85
2022/05/28 02:42:29;;;;;;;5.57;3.97;;;;;;;5.25;100.00;98405.88;2576106;28;20081;-79
2022/05/28 02:43:44;;;;;;;9.50;4.18;;;;;;;5.32;100.00;98409.28;2576052;28;20050;-79
2022/05/28 02:45:00;;;;;;;6.90;3.70;;;;;;;5.26;100.00;98404.09;2576089;28;20122;-79
2022/05/28 02:46:15;;;;;;;5.07;3.30;;;;;;;5.16;100.00;98408.50;2575821;28;20046;-79
2022/05/28 02:47:31;;;;;;;5.63;3.20;;;;;;;5.09;100.00;98412.88;2575798;28;20081;-81
2022/05/28 02:48:47;;;;;;;5.68;3.15;;;;;;;5.05;100.00;98406.84;2575813;28;20046;-79
2022/05/28 02:50:02;;;;;;;7.38;3.60;;;;;;;5.02;100.00;98411.19;2565092;28;20130;-79
2022/05/28 02:51:21;;;;;;;6.22;3.20;;;;;;;5.02;100.00;98400.78;2569208;28;20056;-78
2022/05/28 02:52:37;;;;;;;7.65;3.58;;;;;;;4.93;100.00;98404.31;2575698;28;20065;-79
2022/05/28 02:53:54;;;;;;;5.72;3.60;;;;;;;4.90;100.00;98402.63;2575883;28;20524;-79
2022/05/28 02:55:09;;;;;;;5.07;3.08;;;;;;;4.80;100.00;98401.78;2575730;28;20046;-79
2022/05/28 02:56:25;;;;;;;5.13;2.95;;;;;;;4.78;100.00;98402.69;2575577;28;20493;-80
2022/05/28 02:57:40;;;;;;;7.70;3.42;;;;;;;4.72;100.00;98402.69;2575682;28;20062;-79
2022/05/28 02:58:56;;;;;;;7.95;3.50;;;;;;;4.79;100.00;98409.59;2575893;28;20512;-78
2022/05/28 03:00:14;;;;;;;5.97;3.10;;;;;;;4.82;100.00;98409.56;2575452;28;20050;-79
2022/05/28 03:01:35;;;;;;;7.57;3.42;;;;;;;4.78;100.00;98400.94;2575474;28;20446;-81
2022/05/28 03:02:51;;;;;;;8.07;3.50;;;;;;;4.79;100.00;98409.59;2575923;28;20051;-79
2022/05/28 03:04:08;;;;;;;7.60;3.10;;;;;;;4.72;100.00;98402.69;2576210;28;20054;-79
2022/05/28 03:05:24;;;;;;;5.85;3.25;;;;;;;4.74;100.00;98407.03;2575561;28;20046;-79
2022/05/28 03:06:40;;;;;;;7.95;3.80;;;;;;;4.74;100.00;98407.03;2575477;28;20696;-78
2022/05/28 03:07:55;;;;;;;7.47;3.85;;;;;;;4.77;100.00;98416.53;2575832;28;20059;-81
2022/05/28 03:09:11;;;;;;;9.05;3.90;;;;;;;4.81;100.00;98410.44;2575744;28;20057;-80
2022/05/28 03:10:27;;;;;;;9.88;3.67;;;;;;;4.80;100.00;98417.34;2575841;28;20054;-79
2022/05/28 03:11:42;;;;;;;9.88;3.20;;;;;;;4.76;100.00;98412.22;2575811;28;20053;-80
2022/05/28 03:12:58;;;;;;;7.45;3.75;;;;;;;4.79;100.00;98410.44;2575563;28;20425;-80
2022/05/28 03:14:13;;;;;;;9.60;3.53;;;;;;;4.78;100.00;98410.47;2576025;28;20050;-78
2022/05/28 03:15:29;;;;;;;7.47;3.60;;;;;;;4.78;100.00;98413.06;2575764;28;20051;-79
2022/05/28 03:16:45;;;;;;;11.18;3.65;;;;;;;4.80;100.00;98416.50;2575613;28;20069;-79
2022/05/28 03:18:00;;;;;;;7.22;3.75;;;;;;;4.81;100.00;98418.22;2575807;28;20481;-79
2022/05/28 03:19:16;;;;;;;8.48;3.50;;;;;;;4.80;100.00;98417.34;2575521;28;20074;-79
2022/05/28 03:20:32;;;;;;;6.82;3.33;;;;;;;4.80;100.00;98421.69;2575860;28;20054;-80
2022/05/28 03:21:47;;;;;;;4.78;3.08;;;;;;;4.88;100.00;98411.28;2575595;28;20104;-79
2022/05/28 03:23:03;;;;;;;6.78;3.63;;;;;;;4.89;100.00;98410.41;2575679;28;20063;-79
2022/05/28 03:24:18;;;;;;;5.93;3.65;;;;;;;4.91;100.00;98413.84;2575777;28;20050;-79
2022/05/28 03:25:34;;;;;;;9.90;3.78;;;;;;;4.91;100.00;98408.66;2575646;28;20080;-79
2022/05/28 03:26:49;;;;;;;8.85;3.40;;;;;;;4.94;100.00;98411.22;2576059;28;20513;-80
2022/05/28 03:28:05;;;;;;;8.07;3.25;;;;;;;5.00;100.00;98407.72;2575795;28;20108;-80
2022/05/28 03:29:21;;;;;;;6.90;3.15;;;;;;;5.02;100.00;98417.25;2575853;28;20050;-79
2022/05/28 03:30:36;;;;;;;8.55;3.63;;;;;;;5.03;100.00;98416.38;2575640;28;20093;-79
2022/05/28 03:31:52;;;;;;;5.13;3.50;;;;;;;5.07;100.00;98420.66;2575506;28;20057;-79
2022/05/28 03:33:08;;;;;;;6.82;3.35;;;;;;;5.13;100.00;98414.56;2575345;28;20084;-79
2022/05/28 03:34:24;;;;;;;5.70;2.95;;;;;;;5.15;100.00;98418.00;2575385;28;20046;-78
2022/05/28 03:35:40;;;;;;;6.63;3.30;;;;;;;5.10;100.00;98417.19;2575321;28;20093;-82
2022/05/28 03:36:55;;;;;;;4.35;2.70;;;;;;;5.06;100.00;98423.28;2574755;28;20050;-79
2022/05/28 03:38:11;;;;;;;7.07;3.03;;;;;;;5.11;100.00;98423.25;2575264;28;20099;-79
2022/05/28 03:39:26;;;;;;;6.60;3.38;;;;;;;5.16;100.00;98419.75;2575450;28;20069;-79
2022/05/28 03:40:42;;;;;;;6.63;3.08;;;;;;;5.22;100.00;98418.84;2575550;28;20741;-79
2022/05/28 03:41:57;;;;;;;10.98;3.13;;;;;;;5.17;100.00;98415.44;2575709;28;20144;-84
2022/05/28 03:43:13;;;;;;;5.70;3.10;;;;;;;5.15;100.00;98412.81;2575589;28;20428;-79
2022/05/28 03:44:29;;;;;;;8.45;3.35;;;;;;;5.17;100.00;98416.31;2575676;28;20050;-79
2022/05/28 03:45:44;;;;;;;7.53;3.08;;;;;;;5.29;100.00;98420.53;2575309;28;20428;-79
2022/05/28 03:47:00;;;;;;;6.55;3.00;;;;;;;5.19;100.00;98424.94;2575396;28;20042;-79
2022/05/28 03:48:16;;;;;;;5.40;3.10;;;;;;;5.15;100.00;98418.00;2563840;28;20050;-78
2022/05/28 03:49:35;;;;;;;6.28;3.10;;;;;;;5.15;100.00;98420.63;2568638;28;20664;-79
2022/05/28 03:50:50;;;;;;;7.95;3.00;;;;;;;4.98;100.00;98419.84;2575500;28;20050;-79
2022/05/28 03:52:07;;;;;;;5.43;2.90;;;;;;;4.94;100.00;98422.47;2575384;28;20046;-79
2022/05/28 03:53:23;;;;;;;4.13;3.03;;;;;;;4.96;100.00;98422.47;2575328;28;20361;-83
2022/05/28 03:54:44;;;;;;;6.50;2.88;;;;;;;4.92;100.00;98420.75;2575192;28;20054;-81
2022/05/28 03:56:00;;;;;;;7.93;3.38;;;;;;;4.83;100.00;98421.66;2575713;28;20426;-79
2022/05/28 03:57:31;;;;;;;4.57;3.10;;;;;;;4.86;100.00;98416.47;2574810;28;20112;-80
2022/05/28 03:58:47;;;;;;;4.63;2.72;;;;;;;4.93;100.00;98425.06;2575140;28;20074;-79
2022/05/28 04:00:04;;;;;;;6.78;2.97;;;;;;;4.94;100.00;98424.19;2574954;28;20561;-81
2022/05/28 04:01:20;;;;;;;6.90;2.95;;;;;;;4.97;100.00;98426.81;2575114;28;20344;-78
2022/05/28 04:02:35;;;;;;;5.85;2.67;;;;;;;4.95;100.00;98421.59;2575078;28;20101;-80
2022/05/28 04:03:51;;;;;;;4.63;2.47;;;;;;;4.99;100.00;98422.47;2575037;28;20322;-80
2022/05/28 04:05:07;;;;;;;7.28;2.47;;;;;;;5.02;100.00;98429.34;2574863;28;20057;-81
2022/05/28 04:06:23;;;;;;;4.10;2.80;;;;;;;5.07;100.00;98422.41;2574803;28;20054;-80
2022/05/28 04:07:39;;;;;;;5.60;2.67;;;;;;;5.17;100.00;98423.22;2574459;28;20515;-81
2022/05/28 04:08:55;;;;;;;4.72;2.60;;;;;;;5.22;100.00;98424.91;2574990;28;20218;-84
2022/05/28 04:10:10;;;;;;;7.72;2.70;;;;;;;5.28;100.00;98417.94;2574953;28;20046;-80
2022/05/28 04:11:26;;;;;;;6.18;3.17;;;;;;;5.34;100.00;98420.50;2574800;28;20096;-80
2022/05/28 04:12:41;;;;;;;6.20;3.22;;;;;;;5.36;100.00;98429.16;2574842;28;20078;-81
2022/05/28 04:13:57;;;;;;;8.10;3.10;;;;;;;5.44;100.00;98429.94;2574524;28;20074;-82
2022/05/28 04:15:13;;;;;;;5.22;3.22;;;;;;;5.45;100.00;98426.50;2574679;28;20050;-80
2022/05/28 04:16:29;;;;;;;4.68;2.85;;;;;;;5.51;100.00;98426.44;2574573;28;20343;-79
2022/05/28 04:17:44;;;;;;;8.45;3.33;;;;;;;5.58;100.00;98428.97;2574424;28;20088;-80
2022/05/28 04:19:00;;;;;;;8.68;3.13;;;;;;;5.62;100.00;98422.88;2574773;28;20256;-84
2022/05/28 04:20:16;;;;;;;8.20;3.20;;;;;;;5.61;100.00;98428.97;2574564;28;20097;-82
2022/05/28 04:21:31;;;;;;;6.38;3.10;;;;;;;5.64;100.00;98426.34;2574586;28;20065;-83
2022/05/28 04:22:47;;;;;;;7.68;2.80;;;;;;;5.68;100.00;98428.03;2574434;28;20070;-80
2022/05/28 04:24:04;;;;;;;4.68;3.05;;;;;;;5.69;100.00;98427.16;2574780;28;20078;-80
2022/05/28 04:25:20;;;;;;;5.60;2.63;;;;;;;5.76;100.00;98434.03;2574451;28;20042;-83
2022/05/28 04:26:36;;;;;;;5.43;2.78;;;;;;;5.78;100.00;98431.41;2574097;28;20057;-79
2022/05/28 04:27:51;;;;;;;8.65;2.80;;;;;;;5.85;100.00;98427.00;2574504;28;20749;-80
2022/05/28 04:29:07;;;;;;;6.15;3.33;;;;;;;5.87;100.00;98423.53;2574000;28;20050;-80
2022/05/28 04:30:22;;;;;;;8.98;2.72;;;;;;;5.87;100.00;98428.72;2574478;28;20054;-80
2022/05/28 04:31:38;;;;;;;3.95;2.30;;;;;;;5.88;100.00;98429.59;2574563;28;20058;-80
2022/05/28 04:32:53;;;;;;;5.13;2.22;;;;;;;5.92;100.00;98428.69;2574989;28;20120;-81
2022/05/28 04:34:11;;;;;;;6.10;2.13;;;;;;;5.96;100.00;98430.38;2574649;28;20059;-80
2022/05/28 04:35:27;;;;;;;6.00;1.88;;;;;;;6.04;100.00;98423.41;2574569;28;20504;-81
2022/05/28 04:36:42;;;;;;;5.38;2.10;;;;;;;6.16;100.00;98418.97;2574484;28;20065;-81
2022/05/28 04:37:58;;;;;;;5.75;1.70;;;;;;;6.34;100.00;98417.88;2574298;28;20074;-81
2022/05/28 04:39:14;;;;;;;5.78;1.90;;;;;;;6.48;100.00;98422.94;2574929;28;20120;-80
2022/05/28 04:40:29;;;;;;;3.70;1.40;;;;;;;6.57;99.43;98422.84;2574815;28;20057;-80
2022/05/28 04:41:45;;;;;;;4.57;1.73;;;;;;;6.64;100.00;98426.22;2574602;28;20046;-80
2022/05/28 04:43:01;;;;;;;5.47;1.67;;;;;;;6.70;98.34;98420.94;2574929;28;20049;-80
2022/05/28 04:44:16;;;;;;;2.92;1.40;;;;;;;6.78;98.00;98411.31;2576218;28;20046;-86
2022/05/28 04:45:32;;;;;;;8.27;2.05;;;;;;;6.74;99.88;98414.81;2576838;28;20058;-80
2022/05/28 04:46:47;;;;;;;5.10;2.00;;;;;;;6.82;99.51;98419.06;2576369;28;20046;-80
2022/05/28 04:48:03;;;;;;;4.72;1.88;;;;;;;6.83;99.45;98421.63;2576381;28;20492;-80
2022/05/28 04:49:19;;;;;;;8.55;1.90;;;;;;;6.89;97.97;98412.88;2576269;28;20413;-79
2022/05/28 04:50:34;;;;;;;4.90;1.80;;;;;;;6.85;98.43;98422.50;2576584;28;20057;-79
2022/05/28 04:51:50;;;;;;;5.80;1.67;;;;;;;6.94;99.21;98418.91;2576730;28;20456;-80
2022/05/28 04:53:06;;;;;;;7.25;1.80;;;;;;;6.98;99.52;98417.09;2575406;28;20421;-82
2022/05/28 04:54:21;;;;;;;6.13;1.67;;;;;;;6.98;99.88;98422.28;2576221;28;20105;-79
2022/05/28 04:55:38;;;;;;;5.80;1.75;;;;;;;6.98;99.21;98411.88;2575830;28;20050;-81
2022/05/28 04:56:53;;;;;;;4.57;2.17;;;;;;;7.03;99.38;98413.53;2574066;28;20161;-79
2022/05/28 04:58:11;;;;;;;5.13;2.15;;;;;;;7.04;97.90;98412.66;2575428;28;20047;-80
2022/05/28 04:59:27;;;;;;;4.43;1.77;;;;;;;7.17;98.39;98415.97;2576174;28;20741;-81
2022/05/28 05:00:44;;;;;;;3.00;1.83;;;;;;;7.21;99.02;98417.63;2574750;28;20043;-81
2022/05/28 05:02:00;;;;;;;5.05;1.80;;;;;;;7.33;97.65;98415.72;2576071;28;20074;-82
2022/05/28 05:03:15;;;;;;;3.90;1.48;;;;;;;7.39;96.30;98420.00;2576270;28;20054;-80
2022/05/28 05:04:31;;;;;;;5.70;1.80;;;;;;;7.48;97.81;98414.66;2576361;28;20050;-80
2022/05/28 05:05:47;;;;;;;4.38;1.50;;;;;;;7.39;98.70;98415.63;2564745;28;20058;-80
2022/05/28 05:07:02;;;;;;;8.05;1.70;;;;;;;7.46;99.63;98411.19;2568808;28;20050;-80
2022/05/28 05:08:18;;;;;;;5.93;1.73;;;;;;;7.48;99.34;98412.88;2576310;28;20046;-79
2022/05/28 05:09:34;;;;;;;9.18;2.10;;;;;;;7.43;100.00;98416.44;2576548;28;20051;-79
2022/05/28 05:10:49;;;;;;;9.85;2.08;;;;;;;7.45;98.41;98420.75;2576433;28;20061;-82
2022/05/28 05:12:05;;;;;;;3.35;1.50;;;;;;;7.49;98.15;98419.81;2576575;28;20050;-80
2022/05/28 05:13:21;;;;;;;4.85;1.40;;;;;;;7.51;97.62;98416.31;2576911;28;20060;-79
2022/05/28 05:14:37;;;;;;;4.38;1.50;;;;;;;7.59;97.52;98419.69;2576423;28;20054;-80
2022/05/28 05:15:52;;;;;;;3.85;1.65;;;;;;;7.66;97.80;98421.28;2575923;28;20054;-80
2022/05/28 05:17:08;;;;;;;3.60;1.85;;;;;;;7.72;100.00;98417.72;2574316;28;20066;-80
2022/05/28 05:18:23;;;;;;;6.10;1.48;;;;;;;7.72;97.96;98418.59;2575709;28;20050;-81
2022/05/28 05:19:39;;;;;;;3.70;1.60;;;;;;;7.76;97.34;98422.84;2575264;28;20100;-79
2022/05/28 05:20:55;;;;;;;4.07;1.70;;;;;;;7.94;97.44;98427.78;2575369;28;20050;-84
2022/05/28 05:22:10;;;;;;;5.00;1.73;;;;;;;7.98;96.95;98426.84;2575918;28;20108;-79
2022/05/28 05:23:26;;;;;;;4.10;1.83;;;;;;;7.98;96.36;98427.72;2575784;28;20047;-81
2022/05/28 05:24:41;;;;;;;2.97;1.63;;;;;;;8.05;96.06;98425.84;2575522;28;20152;-80
2022/05/28 05:25:57;;;;;;;7.68;1.40;;;;;;;8.10;95.22;98425.75;2575708;28;20689;-80
2022/05/28 05:27:13;;;;;;;4.15;0.90;;;;;;;8.18;95.39;98426.47;2575292;28;20124;-82
2022/05/28 05:28:28;;;;;;;4.90;1.45;;;;;;;8.20;93.52;98422.97;2575327;28;20054;-81
2022/05/28 05:29:44;;;;;;;7.35;1.13;;;;;;;8.24;92.49;98420.28;2575390;28;20141;-82
2022/05/28 05:30:59;;;;;;;4.72;1.30;;;;;;;8.28;92.45;98420.22;2574825;28;20053;-81
2022/05/28 05:32:15;;;;;;;5.78;1.55;;;;;;;8.35;90.87;98423.56;2575396;28;20072;-81
2022/05/28 05:33:30;;;;;;;4.80;1.10;;;;;;;8.32;87.78;98424.47;2575342;28;20046;-81
2022/05/28 05:34:46;;;;;;;2.67;0.70;;;;;;;8.36;87.66;98429.63;2575384;28;20409;-80
2022/05/28 05:36:02;;;;;;;5.57;1.05;;;;;;;8.40;89.13;98428.69;2575413;28;20049;-82
2022/05/28 05:37:18;;;;;;;4.47;0.93;;;;;;;8.53;87.59;98422.38;2574972;28;20054;-81
2022/05/28 05:38:34;;;;;;;3.90;1.33;;;;;;;8.58;89.09;98424.88;2575239;28;20050;-80
2022/05/28 05:39:50;;;;;;;3.30;0.80;;;;;;;8.60;85.51;98423.13;2575243;28;20060;-81
2022/05/28 05:41:06;;;;;;;2.72;1.10;;;;;;;8.74;87.06;98414.97;2575430;28;20086;-80
2022/05/28 05:42:22;;;;;;;4.82;1.45;;;;;;;8.67;87.53;98414.25;2574787;28;20121;-81
2022/05/28 05:43:37;;;;;;;5.60;1.50;;;;;;;8.74;87.95;98413.25;2575281;28;20482;-84
2022/05/28 05:44:53;;;;;;;5.75;1.20;;;;;;;8.75;87.49;98414.09;2575260;28;20065;-81
2022/05/28 05:46:09;;;;;;;3.88;1.40;;;;;;;8.79;86.00;98412.28;2575266;28;20552;-81
2022/05/28 05:47:24;;;;;;;2.05;1.00;;;;;;;8.80;83.97;98412.25;2575433;28;20124;-81
2022/05/28 05:48:40;;;;;;;2.33;0.80;;;;;;;8.86;86.47;98419.06;2575331;28;20046;-81
2022/05/28 05:49:56;;;;;;;1.40;0.80;;;;;;;8.88;85.02;98412.09;2575656;28;20382;-80
2022/05/28 05:51:15;;;;;;;3.05;1.10;;;;;;;8.88;83.45;98412.09;2575325;28;20050;-82
2022/05/28 05:52:31;;;;;;;3.55;1.10;;;;;;;8.99;84.25;98414.47;2575350;28;20103;-80
2022/05/28 05:53:46;;;;;;;3.47;1.05;;;;;;;9.01;84.17;98420.50;2575055;28;20050;-81
2022/05/28 05:55:02;;;;;;;1.83;1.08;;;;;;;9.04;81.79;98417.81;2575184;28;20137;-82
2022/05/28 05:56:18;;;;;;;6.85;1.35;;;;;;;9.00;83.96;98411.81;2575242;28;20054;-81
2022/05/28 05:57:33;;;;;;;2.38;1.15;;;;;;;9.08;84.88;98408.19;2574857;28;20046;-80
2022/05/28 05:58:49;;;;;;;1.98;0.88;;;;;;;9.12;82.61;98410.69;2575249;28;20621;-81
2022/05/28 06:00:05;;;;;;;6.38;1.00;;;;;;;9.20;87.66;98410.50;2574913;28;20604;-80
2022/05/28 06:01:20;;;;;;;2.17;0.93;;;;;;;9.29;83.24;98407.69;2574931;28;20057;-82
2022/05/28 06:02:36;;;;;;;4.22;1.05;;;;;;;9.27;84.46;98408.63;2575123;28;20057;-81
2022/05/28 06:03:51;;;;;;;4.63;1.00;;;;;;;9.28;83.10;98408.56;2574932;28;20061;-81
2022/05/28 06:05:08;;;;;;;4.28;1.05;;;;;;;9.38;85.11;98414.47;2575220;28;20441;-83
2022/05/28 06:06:25;;;;;;;1.80;1.08;;;;;;;9.40;83.17;98411.78;2574861;28;20077;-82
2022/05/28 06:07:40;;;;;;;4.03;1.20;;;;;;;9.45;83.55;98410.78;2575126;28;20160;-82